createdAt,value
2022-12-07T00:01:48.709Z,101732.84
2022-12-07T00:04:19.359Z,101726.25
2022-12-07T00:06:52.004Z,101725.41
2022-12-07T00:09:20.938Z,101730.41
2022-12-07T00:11:53.124Z,101730.19
2022-12-07T00:14:22.174Z,101726.09
2022-12-07T00:16:54.273Z,101732.66
2022-12-07T00:19:22.610Z,101718.72
2022-12-07T00:21:50.598Z,101727.59
2022-12-07T00:24:22.351Z,101734.31
2022-12-07T00:26:53.636Z,101727.63
2022-12-07T00:29:25.713Z,101733.56
2022-12-07T00:31:54.047Z,101725.81
2022-12-07T00:34:22.866Z,101705.13
2022-12-07T00:36:51.593Z,101724.13
2022-12-07T00:39:19.879Z,101719.81
2022-12-07T00:41:47.875Z,101717.53
2022-12-07T00:44:15.725Z,101724.06
2022-12-07T00:46:43.960Z,101723.88
2022-12-07T00:49:11.734Z,101730.88
2022-12-07T00:51:39.602Z,101705.22
2022-12-07T00:54:11.051Z,101722.38
2022-12-07T00:56:38.864Z,101720.59
2022-12-07T00:59:07.235Z,101724.28
2022-12-07T01:01:37.831Z,101723.38
2022-12-07T01:04:06.472Z,101722.19
2022-12-07T01:06:34.873Z,101726.47
2022-12-07T01:09:03.112Z,101722.47
2022-12-07T01:11:31.446Z,101728.31
2022-12-07T01:14:01.949Z,101720.59
2022-12-07T01:16:31.676Z,101709.94
2022-12-07T01:19:01.672Z,101728.03
2022-12-07T01:21:36.302Z,101721.16
2022-12-07T01:24:07.381Z,101725.37
2022-12-07T01:26:35.246Z,101733.69
2022-12-07T01:29:02.996Z,101732.72
2022-12-07T01:31:31.527Z,101728.87
2022-12-07T01:34:01.016Z,101729.53
2022-12-07T01:36:32.053Z,101724.09
2022-12-07T01:39:02.992Z,101715.16
2022-12-07T01:41:33.648Z,101729.53
2022-12-07T01:44:26.318Z,101717.87
2022-12-07T01:46:59.672Z,101714.94
2022-12-07T01:49:50.112Z,101713.69
2022-12-07T01:52:21.439Z,101711.00
2022-12-07T01:54:52.889Z,101701.44
2022-12-07T01:57:22.125Z,101710.06
2022-12-07T01:59:53.595Z,101702.47
2022-12-07T02:02:29.031Z,101692.72
2022-12-07T02:04:58.909Z,101700.75
2022-12-07T02:07:29.229Z,101703.56
2022-12-07T02:09:57.484Z,101709.00
2022-12-07T02:12:26.941Z,101708.69
2022-12-07T02:15:15.035Z,101709.31
2022-12-07T02:18:02.849Z,101704.94
2022-12-07T02:20:49.411Z,101710.16
2022-12-07T02:23:34.419Z,101700.81
2022-12-07T02:26:52.153Z,101684.31
2022-12-07T02:29:33.334Z,101691.91
2022-12-07T02:32:15.010Z,101696.28
2022-12-07T02:34:50.701Z,101696.22
2022-12-07T02:37:55.888Z,101699.94
2022-12-07T02:40:56.297Z,101696.22
2022-12-07T02:43:39.685Z,101693.63
2022-12-07T02:46:12.643Z,101692.03
2022-12-07T02:48:43.372Z,101688.69
2022-12-07T02:51:11.436Z,101691.81
2022-12-07T02:53:42.091Z,101694.94
2022-12-07T02:56:12.949Z,101686.81
2022-12-07T02:58:47.563Z,101696.56
2022-12-07T03:01:18.363Z,101690.72
2022-12-07T03:03:56.578Z,101684.59
2022-12-07T03:06:34.429Z,101680.38
2022-12-07T03:09:27.567Z,101695.91
2022-12-07T03:12:15.372Z,101683.34
2022-12-07T03:14:51.266Z,101683.25
2022-12-07T03:17:25.226Z,101682.25
2022-12-07T03:19:58.715Z,101685.97
2022-12-07T03:22:31.391Z,101678.56
2022-12-07T03:25:04.545Z,101679.84
2022-12-07T03:27:44.445Z,101676.44
2022-12-07T03:30:25.815Z,101680.22
2022-12-07T03:32:53.448Z,101670.94
2022-12-07T03:35:21.598Z,101672.72
2022-12-07T03:38:10.644Z,101677.06
2022-12-07T03:40:42.661Z,101679.28
2022-12-07T03:43:10.717Z,101675.16
2022-12-07T03:45:43.425Z,101679.50
2022-12-07T03:48:23.290Z,101679.00
2022-12-07T03:51:00.977Z,101682.06
2022-12-07T03:53:40.268Z,101683.81
2022-12-07T03:56:11.037Z,101670.22
2022-12-07T03:58:40.453Z,101666.78
2022-12-07T04:01:08.656Z,101679.69
2022-12-07T04:03:36.703Z,101674.31
2022-12-07T04:06:04.875Z,101678.56
2022-12-07T04:08:35.879Z,101676.44
2022-12-07T04:11:04.331Z,101675.16
2022-12-07T04:13:52.216Z,101674.47
2022-12-07T04:16:20.541Z,101675.31
2022-12-07T04:18:48.467Z,101681.97
2022-12-07T04:21:19.111Z,101672.50
2022-12-07T04:23:47.325Z,101682.91
2022-12-07T04:26:15.151Z,101672.31
2022-12-07T04:28:42.976Z,101672.19
2022-12-07T04:31:11.264Z,101678.44
2022-12-07T04:33:39.007Z,101670.13
2022-12-07T04:36:07.344Z,101672.44
2022-12-07T04:38:37.069Z,101669.31
2022-12-07T04:41:11.739Z,101669.22
2022-12-07T04:43:40.101Z,101671.63
2022-12-07T04:46:08.343Z,101664.84
2022-12-07T04:48:36.101Z,101671.53
2022-12-07T04:51:05.204Z,101671.47
2022-12-07T04:53:33.018Z,101661.16
2022-12-07T04:56:04.139Z,101675.00
2022-12-07T04:58:32.286Z,101686.84
2022-12-07T05:01:00.208Z,101682.69
2022-12-07T05:03:28.283Z,101669.78
2022-12-07T05:05:59.751Z,101680.81
2022-12-07T05:08:27.693Z,101673.44
2022-12-07T05:10:55.500Z,101675.94
2022-12-07T05:13:23.765Z,101684.78
2022-12-07T05:15:51.592Z,101679.16
2022-12-07T05:18:19.597Z,101678.38
2022-12-07T05:20:47.872Z,101677.59
2022-12-07T05:23:15.718Z,101681.00
2022-12-07T05:25:43.478Z,101678.09
2022-12-07T05:28:12.302Z,101674.66
2022-12-07T05:30:40.816Z,101679.97
2022-12-07T05:33:08.625Z,101674.81
2022-12-07T05:35:39.132Z,101681.63
2022-12-07T05:38:06.909Z,101679.41
2022-12-07T05:40:34.724Z,101684.59
2022-12-07T05:43:04.732Z,101681.09
2022-12-07T05:45:33.007Z,101687.69
2022-12-07T05:48:00.715Z,101682.00
2022-12-07T05:50:29.480Z,101676.28
2022-12-07T05:53:02.266Z,101689.78
2022-12-07T05:55:33.459Z,101673.00
2022-12-07T05:58:19.653Z,101670.28
2022-12-07T06:00:51.023Z,101661.00
2022-12-07T06:03:20.334Z,101671.03
2022-12-07T06:05:48.316Z,101673.63
2022-12-07T06:08:16.607Z,101678.72
2022-12-07T06:10:44.824Z,101670.50
2022-12-07T06:13:12.750Z,101676.41
2022-12-07T06:15:40.678Z,101678.22
2022-12-07T06:18:08.893Z,101674.81
2022-12-07T06:20:36.747Z,101681.37
2022-12-07T06:23:07.508Z,101684.84
2022-12-07T06:25:35.709Z,101679.69
2022-12-07T06:28:03.386Z,101685.50
2022-12-07T06:30:31.300Z,101688.13
2022-12-07T06:32:59.471Z,101693.41
2022-12-07T06:35:27.294Z,101690.59
2022-12-07T06:37:55.115Z,101690.03
2022-12-07T06:40:23.368Z,101679.06
2022-12-07T06:42:51.171Z,101684.47
2022-12-07T06:45:19.096Z,101675.72
2022-12-07T06:47:47.301Z,101684.16
2022-12-07T06:50:15.427Z,101682.53
2022-12-07T06:52:43.088Z,101683.47
2022-12-07T06:55:11.306Z,101682.91
2022-12-07T06:57:40.381Z,101682.00
2022-12-07T07:00:08.781Z,101678.56
2022-12-07T07:02:36.993Z,101678.78
2022-12-07T07:05:05.030Z,101684.78
2022-12-07T07:07:41.649Z,101681.06
2022-12-07T07:10:20.651Z,101689.31
2022-12-07T07:12:51.842Z,101686.78
2022-12-07T07:15:23.228Z,101687.63
2022-12-07T07:17:51.029Z,101684.37
2022-12-07T07:20:19.043Z,101683.19
2022-12-07T07:22:47.118Z,101678.25
2022-12-07T07:25:15.088Z,101681.34
2022-12-07T07:27:45.911Z,101690.75
2022-12-07T07:30:14.459Z,101685.56
2022-12-07T07:35:29.179Z,101680.63
2022-12-07T07:37:57.128Z,101681.63
2022-12-07T07:40:25.232Z,101676.69
2022-12-07T07:42:54.692Z,101680.31
2022-12-07T07:45:24.030Z,101681.25
2022-12-07T07:47:51.885Z,101682.09
2022-12-07T07:50:20.454Z,101678.81
2022-12-07T07:52:48.907Z,101675.41
2022-12-07T07:55:16.669Z,101678.09
2022-12-07T07:57:48.312Z,101672.19
2022-12-07T08:00:19.361Z,101667.91
2022-12-07T08:02:47.908Z,101663.94
2022-12-07T08:05:16.058Z,101669.09
2022-12-07T08:07:44.731Z,101667.50
2022-12-07T08:10:15.170Z,101664.03
2022-12-07T08:13:03.239Z,101662.56
2022-12-07T08:15:32.487Z,101661.09
2022-12-07T08:18:00.784Z,101661.06
2022-12-07T08:20:31.002Z,101663.69
2022-12-07T08:22:59.285Z,101654.34
2022-12-07T08:25:28.043Z,101656.19
2022-12-07T08:27:55.870Z,101658.81
2022-12-07T08:30:24.350Z,101651.28
2022-12-07T08:32:52.283Z,101659.97
2022-12-07T08:35:23.572Z,101656.25
2022-12-07T08:37:51.869Z,101653.22
2022-12-07T08:40:20.323Z,101655.00
2022-12-07T08:42:52.173Z,101654.28
2022-12-07T08:45:26.664Z,101650.16
2022-12-07T08:48:08.654Z,101648.41
2022-12-07T08:50:38.872Z,101652.06
2022-12-07T08:53:08.077Z,101653.91
2022-12-07T08:55:36.508Z,101648.03
2022-12-07T08:58:05.107Z,101657.41
2022-12-07T09:00:33.143Z,101649.09
2022-12-07T09:03:01.349Z,101640.53
2022-12-07T09:05:29.529Z,101632.84
2022-12-07T09:08:00.755Z,101638.22
2022-12-07T09:10:30.671Z,101630.75
2022-12-07T09:13:02.026Z,101620.22
2022-12-07T09:15:30.656Z,101628.19
2022-12-07T09:17:58.467Z,101622.34
2022-12-07T09:20:28.319Z,101615.59
2022-12-07T09:22:56.784Z,101616.47
2022-12-07T09:25:24.823Z,101607.13
2022-12-07T09:27:58.943Z,101607.91
2022-12-07T09:30:28.276Z,101612.31
2022-12-07T09:32:58.439Z,101608.12
2022-12-07T09:35:26.479Z,101603.84
2022-12-07T09:37:54.976Z,101603.00
2022-12-07T09:40:25.366Z,101604.81
2022-12-07T09:42:56.359Z,101597.19
2022-12-07T09:45:34.006Z,101594.84
2022-12-07T09:48:03.517Z,101589.63
2022-12-07T09:50:31.979Z,101588.19
2022-12-07T09:53:15.394Z,101588.28
2022-12-07T09:55:46.823Z,101583.69
2022-12-07T09:58:27.698Z,101576.97
2022-12-07T10:01:00.892Z,101580.69
2022-12-07T10:03:30.440Z,101590.06
2022-12-07T10:05:58.577Z,101582.41
2022-12-07T10:08:27.248Z,101586.63
2022-12-07T10:10:57.809Z,101591.72
2022-12-07T10:13:43.992Z,101587.50
2022-12-07T10:16:53.249Z,101587.41
2022-12-07T10:19:23.895Z,101589.16
2022-12-07T10:22:11.367Z,101589.19
2022-12-07T10:24:42.195Z,101584.91
2022-12-07T10:27:33.889Z,101584.06
2022-12-07T10:30:09.091Z,101572.13
2022-12-07T10:32:37.919Z,101576.41
2022-12-07T10:35:43.760Z,101570.44
2022-12-07T10:38:18.469Z,101568.75
2022-12-07T10:40:46.796Z,101554.97
2022-12-07T10:43:15.080Z,101570.38
2022-12-07T10:46:14.530Z,101560.25
2022-12-07T10:48:45.763Z,101563.62
2022-12-07T10:51:48.469Z,101562.75
2022-12-07T10:54:30.009Z,101559.34
2022-12-07T10:57:05.744Z,101551.66
2022-12-07T11:00:01.789Z,101541.47
2022-12-07T11:03:07.152Z,101550.00
2022-12-07T11:05:51.126Z,101549.19
2022-12-07T11:08:41.575Z,101546.44
2022-12-07T11:11:30.895Z,101540.62
2022-12-07T11:14:34.029Z,101537.88
2022-12-07T11:17:11.392Z,101533.75
2022-12-07T11:20:03.435Z,101545.91
2022-12-07T11:22:56.780Z,101536.13
2022-12-07T11:25:55.682Z,101528.75
2022-12-07T11:28:54.265Z,101509.09
2022-12-07T11:31:40.543Z,101524.53
2022-12-07T11:34:21.167Z,101512.47
2022-12-07T11:36:55.443Z,101507.34
2022-12-07T11:39:23.598Z,101508.09
2022-12-07T11:42:23.271Z,101510.59
2022-12-07T11:45:01.913Z,101504.91
2022-12-07T11:47:53.435Z,101502.06
2022-12-07T11:50:32.893Z,101494.28
2022-12-07T11:53:29.808Z,101497.91
2022-12-07T11:55:59.297Z,101499.56
2022-12-07T11:58:48.904Z,101493.59
2022-12-07T12:01:44.551Z,101497.97
2022-12-07T12:04:12.732Z,101489.28
2022-12-07T12:06:43.184Z,101484.37
2022-12-07T12:16:14.511Z,101475.69
2022-12-07T12:18:48.485Z,101472.88
2022-12-07T12:21:21.402Z,101483.38
2022-12-07T12:23:56.625Z,101471.37
2022-12-07T12:26:28.806Z,101469.59
2022-12-07T12:29:03.061Z,101449.69
2022-12-07T12:31:40.588Z,101467.94
2022-12-07T12:34:38.872Z,101462.78
2022-12-07T12:37:35.274Z,101459.34
2022-12-07T12:40:15.687Z,101448.13
2022-12-07T12:42:52.423Z,101460.16
2022-12-07T12:45:28.213Z,101456.81
2022-12-07T12:48:17.390Z,101464.44
2022-12-07T12:50:45.563Z,101462.56
2022-12-07T12:53:28.234Z,101444.47
2022-12-07T12:56:06.238Z,101460.97
2022-12-07T12:58:40.151Z,101459.72
2022-12-07T13:01:32.906Z,101463.22
2022-12-07T13:04:01.064Z,101464.97
2022-12-07T13:06:29.143Z,101474.44
2022-12-07T13:09:01.030Z,101471.06
2022-12-07T13:11:35.539Z,101467.41
2022-12-07T13:14:41.756Z,101469.03
2022-12-07T13:17:33.728Z,101476.63
2022-12-07T13:20:10.466Z,101460.50
2022-12-07T13:22:48.849Z,101464.84
2022-12-07T13:25:28.466Z,101467.25
2022-12-07T13:28:17.049Z,101465.53
2022-12-07T13:30:52.155Z,101454.44
2022-12-07T13:33:21.146Z,101458.72
2022-12-07T13:35:49.092Z,101458.66
2022-12-07T13:38:29.476Z,101458.53
2022-12-07T13:41:07.016Z,101468.03
2022-12-07T13:43:45.819Z,101442.47
2022-12-07T13:46:23.355Z,101458.69
2022-12-07T13:48:51.876Z,101453.25
2022-12-07T13:51:28.955Z,101453.63
2022-12-07T13:54:03.349Z,101460.22
2022-12-07T13:56:40.720Z,101453.25
2022-12-07T13:59:21.063Z,101449.88
2022-12-07T14:01:51.084Z,101455.09
2022-12-07T14:04:38.084Z,101453.41
2022-12-07T14:07:25.461Z,101430.00
2022-12-07T14:10:04.014Z,101446.53
2022-12-07T14:12:34.097Z,101439.59
2022-12-07T14:15:04.686Z,101442.16
2022-12-07T14:17:32.971Z,101439.66
2022-12-07T14:20:03.318Z,101435.78
2022-12-07T14:22:39.866Z,101443.56
2022-12-07T14:25:14.936Z,101450.41
2022-12-07T14:27:50.539Z,101447.75
2022-12-07T14:30:20.231Z,101417.84
2022-12-07T14:32:53.662Z,101438.19
2022-12-07T14:35:22.037Z,101434.09
2022-12-07T14:37:51.373Z,101431.47
2022-12-07T14:40:22.411Z,101425.50
2022-12-07T14:42:58.691Z,101417.72
2022-12-07T14:45:26.778Z,101417.53
2022-12-07T14:53:43.840Z,101420.69
2022-12-07T14:56:11.750Z,101417.63
2022-12-07T14:58:42.483Z,101416.53
2022-12-07T15:01:10.505Z,101414.97
2022-12-07T15:03:39.373Z,101409.75
2022-12-07T15:06:08.219Z,101417.47
2022-12-07T15:08:36.168Z,101413.78
2022-12-07T15:11:04.048Z,101408.19
2022-12-07T15:13:50.593Z,101407.34
2022-12-07T15:16:22.479Z,101404.75
2022-12-07T15:19:19.403Z,101399.37
2022-12-07T15:21:38.596Z,101405.94
2022-12-07T15:24:07.009Z,101406.28
2022-12-07T15:26:38.368Z,101411.38
2022-12-07T15:29:07.654Z,101405.28
2022-12-07T15:31:55.277Z,101406.16
2022-12-07T15:34:26.695Z,101406.97
2022-12-07T15:36:54.449Z,101409.28
2022-12-07T15:39:22.966Z,101403.66
2022-12-07T15:41:51.503Z,101400.97
2022-12-07T15:44:38.131Z,101398.06
2022-12-07T15:47:06.869Z,101398.25
2022-12-07T15:49:34.663Z,101400.72
2022-12-07T15:52:05.591Z,101396.75
2022-12-07T15:54:34.697Z,101394.03
2022-12-07T15:57:02.474Z,101394.13
2022-12-07T15:59:30.558Z,101393.81
2022-12-07T16:01:59.902Z,101396.41
2022-12-07T16:04:30.616Z,101395.25
2022-12-07T16:06:59.306Z,101396.31
2022-12-07T16:09:28.163Z,101405.88
2022-12-07T16:11:56.627Z,101393.84
2022-12-07T16:14:27.770Z,101388.41
2022-12-07T16:16:55.972Z,101391.19
2022-12-07T16:19:24.150Z,101388.69
2022-12-07T16:21:51.862Z,101384.25
2022-12-07T16:24:19.786Z,101380.94
2022-12-07T16:26:50.191Z,101383.16
2022-12-07T16:29:21.164Z,101383.56
2022-12-07T16:31:50.420Z,101381.81
2022-12-07T16:34:18.705Z,101377.41
2022-12-07T16:37:05.725Z,101373.09
2022-12-07T16:39:35.475Z,101377.25
2022-12-07T16:42:03.891Z,101373.63
2022-12-07T16:44:32.846Z,101384.12
2022-12-07T16:47:02.378Z,101376.31
2022-12-07T16:49:30.357Z,101379.87
2022-12-07T16:54:46.737Z,101382.63
2022-12-07T16:57:21.498Z,101375.50
2022-12-07T16:59:50.613Z,101376.47
2022-12-07T17:02:18.352Z,101369.59
2022-12-07T17:04:46.039Z,101366.63
2022-12-07T17:07:14.326Z,101359.22
2022-12-07T17:09:42.026Z,101365.19
2022-12-07T17:12:09.700Z,101354.28
2022-12-07T17:14:55.987Z,101353.31
2022-12-07T17:17:23.794Z,101350.69
2022-12-07T17:19:51.862Z,101348.34
2022-12-07T17:22:19.617Z,101347.25
2022-12-07T17:24:47.534Z,101350.75
2022-12-07T17:27:15.703Z,101350.78
2022-12-07T17:29:43.430Z,101346.47
2022-12-07T17:32:11.211Z,101340.56
2022-12-07T17:34:39.301Z,101340.41
2022-12-07T17:37:07.292Z,101351.38
2022-12-07T17:39:35.210Z,101340.47
2022-12-07T17:42:22.227Z,101340.56
2022-12-07T17:44:49.930Z,101337.94
2022-12-07T17:47:19.286Z,101333.81
2022-12-07T17:49:47.382Z,101330.03
2022-12-07T17:52:34.295Z,101331.03
2022-12-07T17:55:02.753Z,101332.66
2022-12-07T17:57:31.147Z,101332.56
2022-12-07T17:59:59.023Z,101328.84
2022-12-07T18:02:27.326Z,101332.53
2022-12-07T18:04:55.379Z,101340.88
2022-12-07T18:07:23.518Z,101337.53
2022-12-07T18:09:54.032Z,101336.25
2022-12-07T18:12:22.150Z,101337.53
2022-12-07T18:14:51.227Z,101330.25
2022-12-07T18:20:06.314Z,101335.31
2022-12-07T18:22:34.374Z,101323.31
2022-12-07T18:25:02.288Z,101325.06
2022-12-07T18:27:30.664Z,101324.94
2022-12-07T18:29:59.971Z,101322.41
2022-12-07T18:32:31.611Z,101325.53
2022-12-07T18:35:01.147Z,101322.38
2022-12-07T18:37:30.612Z,101318.91
2022-12-07T18:39:58.448Z,101316.03
2022-12-07T18:42:26.665Z,101314.81
2022-12-07T18:44:54.560Z,101308.78
2022-12-07T18:47:22.411Z,101312.22
2022-12-07T18:49:51.880Z,101307.78
2022-12-07T18:52:20.164Z,101320.34
2022-12-07T18:54:48.554Z,101307.78
2022-12-07T18:57:16.894Z,101311.41
2022-12-07T18:59:47.462Z,101305.41
2022-12-07T19:02:15.347Z,101300.81
2022-12-07T19:04:43.549Z,101302.00
2022-12-07T19:07:11.904Z,101307.56
2022-12-07T19:09:40.260Z,101302.78
2022-12-07T19:12:12.524Z,101298.69
2022-12-07T19:14:40.462Z,101288.47
2022-12-07T19:17:12.038Z,101281.50
2022-12-07T19:19:42.739Z,101287.25
2022-12-07T19:22:13.372Z,101284.94
2022-12-07T19:24:41.605Z,101287.25
2022-12-07T19:27:09.794Z,101273.38
2022-12-07T19:29:38.026Z,101275.41
2022-12-07T19:32:06.331Z,101277.72
2022-12-07T19:34:34.122Z,101279.38
2022-12-07T19:37:02.727Z,101281.22
2022-12-07T19:39:30.884Z,101275.38
2022-12-07T19:41:59.091Z,101273.53
2022-12-07T19:44:30.295Z,101255.38
2022-12-07T19:47:04.727Z,101271.94
2022-12-07T19:53:03.763Z,101281.16
2022-12-07T19:55:40.728Z,101269.66
2022-12-07T19:58:08.443Z,101264.88
2022-12-07T20:00:36.551Z,101277.78
2022-12-07T20:03:04.786Z,101268.31
2022-12-07T20:05:34.511Z,101268.34
2022-12-07T20:08:02.270Z,101275.97
2022-12-07T20:10:30.558Z,101271.72
2022-12-07T20:13:16.735Z,101282.47
2022-12-07T20:15:44.926Z,101255.44
2022-12-07T20:18:12.660Z,101269.94
2022-12-07T20:20:40.528Z,101267.53
2022-12-07T20:23:08.718Z,101269.78
2022-12-07T20:25:37.367Z,101261.31
2022-12-07T20:28:05.455Z,101280.06
2022-12-07T20:30:33.892Z,101276.81
2022-12-07T20:33:02.462Z,101275.06
2022-12-07T20:35:30.592Z,101269.97
2022-12-07T20:37:58.871Z,101280.94
2022-12-07T20:40:26.703Z,101264.37
2022-12-07T20:42:54.538Z,101276.69
2022-12-07T20:45:22.754Z,101271.63
2022-12-07T20:47:50.842Z,101273.38
2022-12-07T20:50:18.792Z,101271.63
2022-12-07T20:52:47.042Z,101266.59
2022-12-07T20:55:15.132Z,101269.97
2022-12-07T20:57:43.184Z,101264.03
2022-12-07T21:00:12.081Z,101264.75
2022-12-07T21:02:40.664Z,101269.16
2022-12-07T21:05:08.631Z,101265.72
2022-12-07T21:07:37.685Z,101263.81
2022-12-07T21:10:06.184Z,101253.66
2022-12-07T21:12:34.088Z,101260.63
2022-12-07T21:15:02.537Z,101256.25
2022-12-07T21:17:31.718Z,101258.81
2022-12-07T21:19:59.493Z,101248.41
2022-12-07T21:22:27.720Z,101253.72
2022-12-07T21:24:55.414Z,101247.78
2022-12-07T21:27:23.368Z,101244.34
2022-12-07T21:29:54.294Z,101246.97
2022-12-07T21:32:22.595Z,101241.78
2022-12-07T21:34:53.722Z,101239.97
2022-12-07T21:37:21.895Z,101239.22
2022-12-07T21:39:49.694Z,101249.53
2022-12-07T21:42:17.385Z,101248.59
2022-12-07T21:44:45.577Z,101237.53
2022-12-07T21:47:13.436Z,101234.31
2022-12-07T21:49:41.241Z,101239.31
2022-12-07T21:52:09.460Z,101240.25
2022-12-07T21:54:37.498Z,101236.00
2022-12-07T21:57:08.209Z,101244.50
2022-12-07T21:59:36.520Z,101240.25
2022-12-07T22:02:04.435Z,101237.81
2022-12-07T22:04:32.782Z,101232.66
2022-12-07T22:07:01.938Z,101222.50
2022-12-07T22:09:30.835Z,101225.00
2022-12-07T22:11:59.134Z,101225.78
2022-12-07T22:14:45.656Z,101230.03
2022-12-07T22:17:13.822Z,101212.00
2022-12-07T22:19:41.701Z,101217.34
2022-12-07T22:22:18.027Z,101218.06
2022-12-07T22:24:48.445Z,101214.78
2022-12-07T22:27:16.513Z,101210.47
2022-12-07T22:29:44.284Z,101216.28
2022-12-07T22:32:46.741Z,101217.09
2022-12-07T22:35:00.684Z,101222.47
2022-12-07T22:37:32.348Z,101231.66
2022-12-07T22:40:00.265Z,101223.34
2022-12-07T22:42:28.182Z,101221.69
2022-12-07T22:44:56.325Z,101219.06
2022-12-07T22:47:24.215Z,101218.12
2022-12-07T22:49:52.119Z,101213.13
2022-12-07T22:52:20.417Z,101212.13
2022-12-07T22:54:48.282Z,101210.59
2022-12-07T22:57:16.106Z,101215.91
2022-12-07T22:59:44.302Z,101214.81
2022-12-07T23:02:13.181Z,101203.91
2022-12-07T23:04:41.086Z,101192.97
2022-12-07T23:07:12.742Z,101191.16
2022-12-07T23:09:43.646Z,101197.97
2022-12-07T23:12:30.427Z,101200.47
2022-12-07T23:14:58.299Z,101191.16
2022-12-07T23:17:26.504Z,101170.44
2022-12-07T23:19:56.239Z,101180.84
2022-12-07T23:22:25.131Z,101173.28
2022-12-07T23:24:53.509Z,101168.09
2022-12-07T23:27:21.394Z,101169.78
2022-12-07T23:29:49.251Z,101159.66
2022-12-07T23:32:17.438Z,101141.78
2022-12-07T23:34:45.247Z,101140.00
2022-12-07T23:37:12.977Z,101150.12
2022-12-07T23:39:41.078Z,101144.38
2022-12-07T23:42:08.907Z,101134.94
2022-12-07T23:44:36.749Z,101128.00
2022-12-07T23:47:05.055Z,101124.75
2022-12-07T23:49:32.787Z,101126.53
2022-12-07T23:52:00.884Z,101135.91
2022-12-07T23:54:29.019Z,101125.63
2022-12-07T23:56:56.805Z,101122.34
2022-12-07T23:59:24.476Z,101129.03
